Time;durP1;ratioP1;P1;durP2;ratioP2;P2;SDS_P1;SDS_P2;PMS_P1;PMS_P2;Temp;Humidity;BMP_temperature;BMP_pressure;BME280_temperature;BME280_humidity;BME280_pressure;Samples;Min_cycle;Max_cycle;Signal;HPM_P1;HPM_P2
2023/05/06 00:00:30;;;;;;;;;;;12.10;99.90;;;;;;5098151;28;19930;-92
2023/05/06 00:02:58;;;;;;;;;;;12.10;99.90;;;;;;5098448;28;19928;-92
2023/05/06 00:05:24;;;;;;;;;;;12.10;99.90;;;;;;5081833;28;19969;-94
2023/05/06 00:07:51;;;;;;;;;;;12.10;99.90;;;;;;5081427;28;20061;-93
2023/05/06 00:10:17;;;;;;;;;;;12.00;99.90;;;;;;5081353;28;19977;-92
2023/05/06 00:12:42;;;;;;;;;;;12.00;99.90;;;;;;5081470;28;20038;-92
2023/05/06 00:15:08;;;;;;;;;;;12.00;99.90;;;;;;5081156;28;19930;-94
2023/05/06 00:17:34;;;;;;;;;;;12.00;99.90;;;;;;5098674;28;20364;-93
2023/05/06 00:19:59;;;;;;;;;;;11.90;99.90;;;;;;5097692;28;19950;-92
2023/05/06 00:22:25;;;;;;;;;;;12.00;99.90;;;;;;5081303;28;20050;-93
2023/05/06 00:24:50;;;;;;;;;;;11.90;99.90;;;;;;5065316;28;19930;-93
2023/05/06 00:27:16;;;;;;;;;;;11.90;99.90;;;;;;5080764;28;19947;-93
2023/05/06 00:29:41;;;;;;;;;;;11.90;99.90;;;;;;5097799;28;20010;-93
2023/05/06 00:32:07;;;;;;;;;;;11.80;99.90;;;;;;5080716;28;19984;-91
2023/05/06 00:34:33;;;;;;;;;;;11.80;99.90;;;;;;5097571;28;19924;-93
2023/05/06 00:36:58;;;;;;;;;;;11.70;99.90;;;;;;5063997;28;20069;-93
2023/05/06 00:39:24;;;;;;;;;;;11.70;99.90;;;;;;5064013;28;19928;-92
2023/05/06 00:41:50;;;;;;;;;;;11.60;99.90;;;;;;5097512;28;19934;-93
2023/05/06 00:44:15;;;;;;;;;;;11.50;99.90;;;;;;5097550;28;19930;-93
2023/05/06 00:46:42;;;;;;;;;;;11.50;99.90;;;;;;5080537;28;19923;-92
2023/05/06 00:49:07;;;;;;;;;;;11.50;99.90;;;;;;5097565;28;20245;-92
2023/05/06 00:51:33;;;;;;;;;;;11.40;99.90;;;;;;5080494;28;19924;-93
2023/05/06 00:53:59;;;;;;;;;;;11.40;99.90;;;;;;5097727;28;19924;-93
2023/05/06 00:56:25;;;;;;;;;;;11.30;99.90;;;;;;5063413;28;19963;-92
2023/05/06 00:58:51;;;;;;;;;;;11.30;99.90;;;;;;5080253;28;19978;-92
2023/05/06 01:01:17;;;;;;;;;;;11.30;99.90;;;;;;5079707;28;19930;-93
2023/05/06 01:03:43;;;;;;;;;;;11.20;99.90;;;;;;5080160;28;19924;-91
2023/05/06 01:06:21;;;;;;;;;;;11.20;99.90;;;;;;5063428;28;20018;-90
2023/05/06 01:09:07;;;;;;;;;;;11.30;99.90;;;;;;5080134;28;19989;-92
2023/05/06 01:11:53;;;;;;;;;;;11.30;99.90;;;;;;5046520;28;19935;-93
2023/05/06 01:14:22;;;;;;;;;;;11.30;99.90;;;;;;5096307;28;19967;-90
2023/05/06 01:16:52;;;;;;;;;;;11.30;99.90;;;;;;5102979;28;19930;-92
2023/05/06 01:19:28;;;;;;;;;;;11.40;99.90;;;;;;5096868;28;19956;-93
2023/05/06 01:21:55;;;;;;;;;;;11.40;99.90;;;;;;5102834;28;19924;-94
2023/05/06 01:24:32;;;;;;;;;;;11.40;99.90;;;;;;5097507;28;19924;-92
2023/05/06 01:26:58;;;;;;;;;;;11.40;99.90;;;;;;5114640;28;20068;-92
2023/05/06 01:29:23;;;;;;;;;;;11.50;99.90;;;;;;5106176;28;19955;-91
2023/05/06 01:31:50;;;;;;;;;;;11.50;99.90;;;;;;5119256;28;19934;-92
2023/05/06 01:34:39;;;;;;;;;;;11.40;99.90;;;;;;5102458;28;19947;-91
2023/05/06 01:37:14;;;;;;;;;;;11.50;99.90;;;;;;5107144;28;19919;-91
2023/05/06 01:39:40;;;;;;;;;;;10.40;99.90;;;;;;5101579;28;19938;-91
2023/05/06 01:42:08;;;;;;;;;;;11.40;99.90;;;;;;5116928;28;19930;-94
2023/05/06 01:44:35;;;;;;;;;;;11.40;99.90;;;;;;5099627;28;19923;-91
2023/05/06 01:47:01;;;;;;;;;;;11.40;99.90;;;;;;5118260;28;19912;-91
2023/05/06 01:49:28;;;;;;;;;;;11.40;99.90;;;;;;5102363;28;19979;-89
2023/05/06 01:51:54;;;;;;;;;;;11.30;99.90;;;;;;5094405;28;19930;-92
2023/05/06 01:54:19;;;;;;;;;;;11.30;99.90;;;;;;5081160;28;19927;-91
2023/05/06 01:56:45;;;;;;;;;;;11.30;99.90;;;;;;5098512;28;19975;-93
2023/05/06 01:59:14;;;;;;;;;;;11.20;99.90;;;;;;5082135;28;19978;-93
2023/05/06 02:01:39;;;;;;;;;;;9.30;99.90;;;;;;5081594;28;19927;-93
2023/05/06 02:04:05;;;;;;;;;;;11.20;99.90;;;;;;5099342;28;19930;-92
2023/05/06 02:06:31;;;;;;;;;;;11.10;99.90;;;;;;5083496;28;20271;-93
2023/05/06 02:08:56;;;;;;;;;;;11.00;99.90;;;;;;5112149;28;19924;-90
2023/05/06 02:11:22;;;;;;;;;;;11.00;99.90;;;;;;5118278;28;19946;-92
2023/05/06 02:13:47;;;;;;;;;;;10.90;99.90;;;;;;5105095;28;19924;-91
2023/05/06 02:16:13;;;;;;;;;;;10.80;99.90;;;;;;5106920;28;19924;-92
2023/05/06 02:18:38;;;;;;;;;;;10.80;99.90;;;;;;5106670;28;19924;-92
2023/05/06 02:21:04;;;;;;;;;;;10.70;99.90;;;;;;5106358;28;19946;-92
2023/05/06 02:23:30;;;;;;;;;;;10.70;99.90;;;;;;5104543;28;19908;-91
2023/05/06 02:25:56;;;;;;;;;;;10.60;99.90;;;;;;5103453;28;20051;-89
2023/05/06 02:28:22;;;;;;;;;;;10.60;99.90;;;;;;5085509;28;19924;-92
2023/05/06 02:30:48;;;;;;;;;;;10.60;99.90;;;;;;5067677;28;20019;-93
2023/05/06 02:33:13;;;;;;;;;;;10.60;99.90;;;;;;5084329;28;19977;-92
2023/05/06 02:35:39;;;;;;;;;;;10.60;99.90;;;;;;5083598;28;19927;-92
2023/05/06 02:38:05;;;;;;;;;;;10.50;99.90;;;;;;5067233;28;19931;-94
2023/05/06 02:40:31;;;;;;;;;;;10.50;99.90;;;;;;5100942;28;19924;-93
2023/05/06 02:42:56;;;;;;;;;;;10.50;99.90;;;;;;5067067;28;19935;-92
2023/05/06 02:45:22;;;;;;;;;;;10.40;99.90;;;;;;5083787;28;19931;-93
2023/05/06 02:47:47;;;;;;;;;;;10.40;99.90;;;;;;5083341;28;19923;-93
2023/05/06 02:50:13;;;;;;;;;;;10.40;99.90;;;;;;5084511;28;20240;-93
2023/05/06 02:52:38;;;;;;;;;;;10.40;99.90;;;;;;5067297;28;19924;-92
2023/05/06 02:55:05;;;;;;;;;;;10.40;99.90;;;;;;5100795;28;19924;-94
2023/05/06 02:57:30;;;;;;;;;;;10.40;99.90;;;;;;5101488;28;19930;-93
2023/05/06 02:59:56;;;;;;;;;;;10.40;99.90;;;;;;5063151;28;19928;-92
2023/05/06 03:02:22;;;;;;;;;;;10.40;99.90;;;;;;5097703;28;19924;-93
2023/05/06 03:04:47;;;;;;;;;;;10.40;99.90;;;;;;5096841;28;19957;-93
2023/05/06 03:07:13;;;;;;;;;;;8.80;99.90;;;;;;5080547;28;19931;-93
2023/05/06 03:09:38;;;;;;;;;;;10.50;99.90;;;;;;5079527;28;19924;-92
2023/05/06 03:12:05;;;;;;;;;;;10.40;99.90;;;;;;5063442;28;19980;-92
2023/05/06 03:14:30;;;;;;;;;;;10.40;99.90;;;;;;5080518;28;19931;-94
2023/05/06 03:16:56;;;;;;;;;;;10.40;99.90;;;;;;5079868;28;19928;-93
2023/05/06 03:19:21;;;;;;;;;;;10.30;99.90;;;;;;5080151;28;19924;-93
2023/05/06 03:21:47;;;;;;;;;;;10.30;99.90;;;;;;5079745;28;19946;-95
2023/05/06 03:24:12;;;;;;;;;;;10.20;99.90;;;;;;5079598;28;19925;-94
2023/05/06 03:26:38;;;;;;;;;;;10.20;99.90;;;;;;5063131;28;19971;-93
2023/05/06 03:29:04;;;;;;;;;;;10.20;99.90;;;;;;5063261;28;19931;-92
2023/05/06 03:31:29;;;;;;;;;;;10.20;99.90;;;;;;5080622;28;19928;-93
2023/05/06 03:33:55;;;;;;;;;;;10.10;99.90;;;;;;5079413;28;19931;-93
2023/05/06 03:36:24;;;;;;;;;;;10.10;99.90;;;;;;5079824;28;19971;-93
2023/05/06 03:38:50;;;;;;;;;;;10.10;99.90;;;;;;5078861;28;19928;-93
2023/05/06 03:41:16;;;;;;;;;;;10.00;99.90;;;;;;5096356;28;19931;-92
2023/05/06 03:43:42;;;;;;;;;;;10.00;99.90;;;;;;5079248;28;19924;-93
2023/05/06 03:46:08;;;;;;;;;;;9.90;99.90;;;;;;5061775;28;20054;-91
2023/05/06 03:48:33;;;;;;;;;;;9.90;99.90;;;;;;5079051;28;19924;-93
2023/05/06 03:50:59;;;;;;;;;;;9.80;99.90;;;;;;5078659;28;20018;-93
2023/05/06 03:53:25;;;;;;;;;;;9.80;99.90;;;;;;5095262;28;19924;-93
2023/05/06 03:55:50;;;;;;;;;;;11.30;99.90;;;;;;5078420;28;19924;-90
2023/05/06 03:58:16;;;;;;;;;;;9.70;99.90;;;;;;5077909;28;19935;-91
2023/05/06 04:00:41;;;;;;;;;;;9.70;99.90;;;;;;5061478;28;19924;-92
2023/05/06 04:03:07;;;;;;;;;;;9.70;99.90;;;;;;5060749;28;19973;-92
2023/05/06 04:05:32;;;;;;;;;;;9.70;99.90;;;;;;5061280;28;20015;-91
2023/05/06 04:07:58;;;;;;;;;;;9.70;99.90;;;;;;5078195;28;19923;-92
2023/05/06 04:10:24;;;;;;;;;;;9.60;99.90;;;;;;5061400;28;20368;-93
2023/05/06 04:12:49;;;;;;;;;;;9.60;99.90;;;;;;5077838;28;20363;-92
2023/05/06 04:15:15;;;;;;;;;;;9.70;99.90;;;;;;5061227;28;19963;-93
2023/05/06 04:17:41;;;;;;;;;;;9.70;99.90;;;;;;5078592;28;19931;-92
2023/05/06 04:20:10;;;;;;;;;;;9.70;99.90;;;;;;5077287;28;19931;-91
2023/05/06 04:22:38;;;;;;;;;;;9.70;99.90;;;;;;5062346;28;19931;-93
2023/05/06 04:25:04;;;;;;;;;;;9.70;99.90;;;;;;5061072;28;19931;-94
2023/05/06 04:27:31;;;;;;;;;;;9.70;99.90;;;;;;5061677;28;19927;-94
2023/05/06 04:29:56;;;;;;;;;;;9.70;99.90;;;;;;5078464;28;19986;-93
2023/05/06 04:32:25;;;;;;;;;;;9.80;99.90;;;;;;5094386;28;20001;-92
2023/05/06 04:34:52;;;;;;;;;;;9.80;99.90;;;;;;5060915;28;19931;-93
2023/05/06 04:37:20;;;;;;;;;;;9.90;99.90;;;;;;5060102;28;20342;-93
2023/05/06 04:39:46;;;;;;;;;;;9.90;99.90;;;;;;5077758;28;19924;-93
2023/05/06 04:42:12;;;;;;;;;;;10.00;99.90;;;;;;5111011;28;20399;-93
2023/05/06 04:44:38;;;;;;;;;;;10.00;99.90;;;;;;5077290;28;20283;-92
2023/05/06 04:47:04;;;;;;;;;;;10.10;99.90;;;;;;5077085;28;20015;-93
2023/05/06 04:49:30;;;;;;;;;;;10.10;99.90;;;;;;5094022;28;19928;-93
2023/05/06 04:51:56;;;;;;;;;;;10.20;99.90;;;;;;5060663;28;19924;-94
2023/05/06 04:54:21;;;;;;;;;;;10.20;99.90;;;;;;5094222;28;19924;-92
2023/05/06 04:56:47;;;;;;;;;;;10.20;99.90;;;;;;5094127;28;19924;-93
2023/05/06 04:59:12;;;;;;;;;;;10.30;99.90;;;;;;5077601;28;20368;-93
2023/05/06 05:01:38;;;;;;;;;;;10.40;99.90;;;;;;5080496;28;19924;-92
2023/05/06 05:04:04;;;;;;;;;;;10.50;99.90;;;;;;5081131;28;19973;-92
2023/05/06 05:06:30;;;;;;;;;;;10.60;99.90;;;;;;5080358;28;19928;-91
2023/05/06 05:08:56;;;;;;;;;;;10.70;99.90;;;;;;5097943;28;19991;-92
2023/05/06 05:11:22;;;;;;;;;;;10.80;99.90;;;;;;5080023;28;19924;-93
2023/05/06 05:13:47;;;;;;;;;;;10.80;99.90;;;;;;5080837;28;19923;-93
2023/05/06 05:16:13;;;;;;;;;;;10.90;99.90;;;;;;5081051;28;19974;-94
2023/05/06 05:18:39;;;;;;;;;;;11.00;99.90;;;;;;5097122;28;20449;-94
2023/05/06 05:21:04;;;;;;;;;;;11.00;99.90;;;;;;5080623;28;19924;-93
2023/05/06 05:23:30;;;;;;;;;;;11.10;99.90;;;;;;5097214;28;19974;-92
2023/05/06 05:25:55;;;;;;;;;;;11.10;99.90;;;;;;5080443;28;19967;-91
2023/05/06 05:28:21;;;;;;;;;;;11.20;99.90;;;;;;5098124;28;19924;-91
2023/05/06 05:30:46;;;;;;;;;;;11.10;99.90;;;;;;5063442;28;19924;-93
2023/05/06 05:33:12;;;;;;;;;;;11.20;99.90;;;;;;5080314;28;19930;-95
2023/05/06 05:35:38;;;;;;;;;;;11.20;99.90;;;;;;5097090;28;20006;-94
2023/05/06 05:38:03;;;;;;;;;;;11.30;99.90;;;;;;5080624;28;20264;-93
2023/05/06 05:40:29;;;;;;;;;;;11.30;99.90;;;;;;5064436;28;20001;-92
2023/05/06 05:42:54;;;;;;;;;;;11.30;99.90;;;;;;5080013;28;19924;-92
2023/05/06 05:45:20;;;;;;;;;;;11.30;99.90;;;;;;5063737;28;20240;-92
2023/05/06 05:47:46;;;;;;;;;;;11.30;99.90;;;;;;5081831;28;19924;-94
2023/05/06 05:50:11;;;;;;;;;;;11.30;99.90;;;;;;5067429;28;19931;-91
2023/05/06 05:52:37;;;;;;;;;;;11.30;99.90;;;;;;5100889;28;19930;-93
2023/05/06 05:55:03;;;;;;;;;;;11.30;99.90;;;;;;5083919;28;19924;-93
2023/05/06 05:57:28;;;;;;;;;;;11.30;99.90;;;;;;5083782;28;19924;-92
2023/05/06 05:59:54;;;;;;;;;;;11.30;99.90;;;;;;5100248;28;19928;-95
2023/05/06 06:02:19;;;;;;;;;;;11.30;99.90;;;;;;5100690;28;19928;-93
2023/05/06 06:04:45;;;;;;;;;;;11.30;99.90;;;;;;5100684;28;19924;-92
2023/05/06 06:07:11;;;;;;;;;;;11.30;99.90;;;;;;5084457;28;19931;-92
2023/05/06 06:09:36;;;;;;;;;;;11.30;99.90;;;;;;5066932;28;19974;-93
2023/05/06 06:12:02;;;;;;;;;;;11.30;99.90;;;;;;5084399;28;19924;-92
2023/05/06 06:14:31;;;;;;;;;;;11.30;99.90;;;;;;5101133;28;20266;-93
2023/05/06 06:16:56;;;;;;;;;;;10.90;99.90;;;;;;5084505;28;20019;-93
2023/05/06 06:19:22;;;;;;;;;;;11.40;99.90;;;;;;5083380;28;19928;-93
2023/05/06 06:21:47;;;;;;;;;;;11.40;99.90;;;;;;5100253;28;19976;-92
2023/05/06 06:24:13;;;;;;;;;;;11.40;99.90;;;;;;5083537;28;19930;-92
2023/05/06 06:26:39;;;;;;;;;;;11.40;99.90;;;;;;5083104;28;19923;-91
2023/05/06 06:29:04;;;;;;;;;;;11.40;99.90;;;;;;5065886;28;19930;-91
2023/05/06 06:31:32;;;;;;;;;;;11.40;99.90;;;;;;5066180;28;20010;-92
2023/05/06 06:33:58;;;;;;;;;;;11.40;99.90;;;;;;5082768;28;19923;-93
2023/05/06 06:36:23;;;;;;;;;;;11.40;99.90;;;;;;5082493;28;20257;-93
2023/05/06 06:38:49;;;;;;;;;;;11.50;99.90;;;;;;5099200;28;20016;-91
2023/05/06 06:41:15;;;;;;;;;;;11.50;99.90;;;;;;5065717;28;19973;-91
2023/05/06 06:43:40;;;;;;;;;;;11.50;99.90;;;;;;5082687;28;19931;-92
2023/05/06 06:46:06;;;;;;;;;;;11.50;99.90;;;;;;5099650;28;19946;-92
2023/05/06 06:48:31;;;;;;;;;;;11.50;99.90;;;;;;5082106;28;20027;-91
2023/05/06 06:50:57;;;;;;;;;;;11.50;99.90;;;;;;5100165;28;19931;-88
2023/05/06 06:53:23;;;;;;;;;;;11.50;99.90;;;;;;5083105;28;20013;-90
2023/05/06 06:55:48;;;;;;;;;;;11.60;99.90;;;;;;5081469;28;20006;-90
2023/05/06 06:58:14;;;;;;;;;;;11.60;99.90;;;;;;5098243;28;19923;-90
2023/05/06 07:00:39;;;;;;;;;;;11.60;99.90;;;;;;5097898;28;20359;-90
2023/05/06 07:03:05;;;;;;;;;;;11.60;99.90;;;;;;5081549;28;19924;-90
2023/05/06 07:05:31;;;;;;;;;;;14.10;99.90;;;;;;5081820;28;19923;-89
2023/05/06 07:07:56;;;;;;;;;;;11.70;99.90;;;;;;5065100;28;19980;-89
2023/05/06 07:10:22;;;;;;;;;;;11.70;99.90;;;;;;5081730;28;19980;-87
2023/05/06 07:12:47;;;;;;;;;;;11.80;99.90;;;;;;5081695;28;20324;-88
2023/05/06 07:15:13;;;;;;;;;;;11.80;99.90;;;;;;5098542;28;19932;-89
2023/05/06 07:17:38;;;;;;;;;;;11.90;99.90;;;;;;5081772;28;19924;-88
2023/05/06 07:20:05;;;;;;;;;;;11.90;99.90;;;;;;5098450;28;19984;-87
2023/05/06 07:22:30;;;;;;;;;;;12.00;99.90;;;;;;5098722;28;20315;-87
2023/05/06 07:24:56;;;;;;;;;;;12.00;99.90;;;;;;5064597;28;20019;-88
2023/05/06 07:27:22;;;;;;;;;;;12.00;99.90;;;;;;5098478;28;19924;-90
2023/05/06 07:29:48;;;;;;;;;;;12.10;99.90;;;;;;5098304;28;19938;-87
2023/05/06 07:32:14;;;;;;;;;;;12.10;99.90;;;;;;5116247;28;19924;-86
2023/05/06 07:34:39;;;;;;;;;;;12.10;99.90;;;;;;5065689;28;19927;-88
2023/05/06 07:37:07;;;;;;;;;;;12.10;99.90;;;;;;5098122;28;19924;-88
2023/05/06 07:39:32;;;;;;;;;;;12.10;99.90;;;;;;5081143;28;19924;-89
2023/05/06 07:41:58;;;;;;;;;;;12.20;99.90;;;;;;5081219;28;19946;-88
2023/05/06 07:44:24;;;;;;;;;;;12.20;99.90;;;;;;5064569;28;19930;-88
2023/05/06 07:46:49;;;;;;;;;;;12.30;99.90;;;;;;5081454;28;19928;-87
2023/05/06 07:49:15;;;;;;;;;;;12.40;99.90;;;;;;5098043;28;20394;-87
2023/05/06 07:51:41;;;;;;;;;;;12.40;99.90;;;;;;5098354;28;19924;-87
2023/05/06 07:54:06;;;;;;;;;;;12.50;99.90;;;;;;5115818;28;19927;-87
2023/05/06 07:56:32;;;;;;;;;;;12.70;99.90;;;;;;5114845;28;20352;-87
2023/05/06 07:58:58;;;;;;;;;;;12.80;99.90;;;;;;5097457;28;20011;-87
2023/05/06 08:01:24;;;;;;;;;;;12.90;99.90;;;;;;5097481;28;20015;-87
2023/05/06 08:03:50;;;;;;;;;;;13.10;99.90;;;;;;5097927;28;20347;-87
2023/05/06 08:06:15;;;;;;;;;;;13.20;99.90;;;;;;5064908;28;20014;-87
2023/05/06 08:08:41;;;;;;;;;;;13.40;99.90;;;;;;5080701;28;20270;-87
2023/05/06 08:11:06;;;;;;;;;;;13.50;99.90;;;;;;5097684;28;19923;-87
2023/05/06 08:13:32;;;;;;;;;;;13.60;99.90;;;;;;5097557;28;19923;-87
2023/05/06 08:15:58;;;;;;;;;;;13.70;99.90;;;;;;5097723;28;19972;-86
2023/05/06 08:18:23;;;;;;;;;;;13.80;99.90;;;;;;5097263;28;20275;-86
2023/05/06 08:20:49;;;;;;;;;;;13.90;99.90;;;;;;5080170;28;19935;-86
2023/05/06 08:23:15;;;;;;;;;;;13.90;99.90;;;;;;5098280;28;19931;-86
2023/05/06 08:25:41;;;;;;;;;;;14.00;99.90;;;;;;5096954;28;19924;-86
2023/05/06 08:28:06;;;;;;;;;;;14.10;99.90;;;;;;5080462;28;19924;-87
2023/05/06 08:30:32;;;;;;;;;;;14.10;99.90;;;;;;5097205;28;20003;-86
2023/05/06 08:33:00;;;;;;;;;;;14.10;99.90;;;;;;5080251;28;19930;-86
2023/05/06 08:35:25;;;;;;;;;;;14.20;99.90;;;;;;5097106;28;19923;-86
2023/05/06 08:37:51;;;;;;;;;;;14.20;99.90;;;;;;5063467;28;20345;-86
2023/05/06 08:40:18;;;;;;;;;;;14.30;99.90;;;;;;5096779;28;19924;-86
2023/05/06 08:42:47;;;;;;;;;;;14.40;99.90;;;;;;5096640;28;19959;-86
2023/05/06 08:45:13;;;;;;;;;;;14.40;99.90;;;;;;5096948;28;20000;-86
2023/05/06 08:47:39;;;;;;;;;;;14.40;99.90;;;;;;5097128;28;19977;-86
2023/05/06 08:50:05;;;;;;;;;;;14.40;99.90;;;;;;5113938;28;19931;-86
2023/05/06 08:52:31;;;;;;;;;;;14.50;99.90;;;;;;5063712;28;19924;-86
2023/05/06 08:55:00;;;;;;;;;;;14.60;99.90;;;;;;5079975;28;20034;-87
2023/05/06 08:57:28;;;;;;;;;;;14.60;99.90;;;;;;5079815;28;19930;-86
2023/05/06 08:59:53;;;;;;;;;;;14.80;99.90;;;;;;5079490;28;20283;-86
2023/05/06 09:02:20;;;;;;;;;;;14.90;99.90;;;;;;5096649;28;19927;-86
2023/05/06 09:04:46;;;;;;;;;;;15.00;99.90;;;;;;5079941;28;19923;-86
2023/05/06 09:07:11;;;;;;;;;;;15.00;99.90;;;;;;5096554;28;19972;-86
2023/05/06 09:09:37;;;;;;;;;;;15.10;99.90;;;;;;5063411;28;20360;-86
2023/05/06 09:12:03;;;;;;;;;;;15.10;99.90;;;;;;5079749;28;19931;-85
2023/05/06 09:14:28;;;;;;;;;;;15.10;99.90;;;;;;5114697;28;19924;-86
2023/05/06 09:16:54;;;;;;;;;;;15.10;99.90;;;;;;5080602;28;20275;-86
2023/05/06 09:19:20;;;;;;;;;;;15.20;99.90;;;;;;5096088;28;19927;-86
2023/05/06 09:21:47;;;;;;;;;;;15.20;99.90;;;;;;5095971;28;19924;-86
2023/05/06 09:24:14;;;;;;;;;;;15.30;99.90;;;;;;5096350;28;19930;-86
2023/05/06 09:26:40;;;;;;;;;;;15.40;99.90;;;;;;5096435;28;19936;-88
2023/05/06 09:29:06;;;;;;;;;;;15.40;99.90;;;;;;5079796;28;19923;-87
2023/05/06 09:31:31;;;;;;;;;;;15.50;99.90;;;;;;5079303;28;20389;-87
2023/05/06 09:33:58;;;;;;;;;;;15.60;99.90;;;;;;5062827;28;20015;-87
2023/05/06 09:36:26;;;;;;;;;;;15.70;99.90;;;;;;5096225;28;19930;-87
2023/05/06 09:38:55;;;;;;;;;;;15.70;99.90;;;;;;5096201;28;19967;-87
2023/05/06 09:41:24;;;;;;;;;;;15.70;99.90;;;;;;5079351;28;20018;-87
2023/05/06 09:43:53;;;;;;;;;;;15.70;99.90;;;;;;5096137;28;19927;-87
2023/05/06 09:46:22;;;;;;;;;;;15.90;99.90;;;;;;5079619;28;20014;-88
2023/05/06 09:48:52;;;;;;;;;;;15.90;99.90;;;;;;5095994;28;19924;-87
2023/05/06 09:51:18;;;;;;;;;;;16.10;99.90;;;;;;5079414;28;19931;-89
2023/05/06 09:53:44;;;;;;;;;;;16.20;99.90;;;;;;5062344;28;20368;-89
2023/05/06 09:56:10;;;;;;;;;;;16.40;99.90;;;;;;5079316;28;20033;-88
2023/05/06 09:58:36;;;;;;;;;;;16.50;99.90;;;;;;5079892;28;20020;-87
2023/05/06 10:01:02;;;;;;;;;;;16.60;99.90;;;;;;5095464;28;19995;-87
2023/05/06 10:03:29;;;;;;;;;;;16.70;99.90;;;;;;5096818;28;19930;-86
2023/05/06 10:05:56;;;;;;;;;;;16.80;99.90;;;;;;5079134;28;20260;-88
2023/05/06 10:08:22;;;;;;;;;;;16.90;99.90;;;;;;5096888;28;20012;-87
2023/05/06 10:10:48;;;;;;;;;;;17.10;99.90;;;;;;5079231;28;19924;-88
2023/05/06 10:13:15;;;;;;;;;;;17.20;99.90;;;;;;5095498;28;19927;-87
2023/05/06 10:15:41;;;;;;;;;;;17.40;99.90;;;;;;5096031;28;19923;-87
2023/05/06 10:18:08;;;;;;;;;;;17.70;99.90;;;;;;5095786;28;19924;-87
2023/05/06 10:20:34;;;;;;;;;;;17.90;99.90;;;;;;5096336;28;20295;-88
2023/05/06 10:23:00;;;;;;;;;;;18.00;99.90;;;;;;5079944;28;19931;-87
2023/05/06 10:25:34;;;;;;;;;;;18.20;99.90;;;;;;5079050;28;19924;-87
2023/05/06 10:28:00;;;;;;;;;;;18.40;99.90;;;;;;5096170;28;19951;-87
2023/05/06 10:30:27;;;;;;;;;;;18.50;99.90;;;;;;5095825;28;20009;-87
2023/05/06 10:32:55;;;;;;;;;;;18.50;99.90;;;;;;5096038;28;19924;-88
2023/05/06 10:35:27;;;;;;;;;;;18.40;99.90;;;;;;5098416;28;20028;-88
2023/05/06 10:37:53;;;;;;;;;;;18.30;99.90;;;;;;5082434;28;19931;-87
2023/05/06 10:40:19;;;;;;;;;;;18.20;99.90;;;;;;5099254;28;19931;-88
2023/05/06 10:42:45;;;;;;;;;;;18.10;99.90;;;;;;5083288;28;19924;-88
2023/05/06 10:45:12;;;;;;;;;;;18.00;99.90;;;;;;5065601;28;19946;-88
2023/05/06 10:47:56;;;;;;;;;;;17.90;99.90;;;;;;5082419;28;19930;-87
2023/05/06 10:50:25;;;;;;;;;;;17.80;99.90;;;;;;5099947;28;19930;-87
2023/05/06 10:52:55;;;;;;;;;;;17.70;99.90;;;;;;5117628;28;20263;-86
2023/05/06 10:55:25;;;;;;;;;;;17.50;99.90;;;;;;5098427;28;20394;-87
2023/05/06 10:57:53;;;;;;;;;;;17.30;99.90;;;;;;5099270;28;19945;-87
2023/05/06 11:00:19;;;;;;;;;;;17.20;99.90;;;;;;5082396;28;20014;-87
2023/05/06 11:02:44;;;;;;;;;;;17.10;99.90;;;;;;5116769;28;19981;-87
2023/05/06 11:05:10;;;;;;;;;;;17.10;99.90;;;;;;5098883;28;20031;-87
2023/05/06 11:07:35;;;;;;;;;;;17.10;99.90;;;;;;5098672;28;20010;-87
2023/05/06 11:10:05;;;;;;;;;;;17.10;99.90;;;;;;5081975;28;20006;-87
2023/05/06 11:12:43;;;;;;;;;;;17.20;99.90;;;;;;5115563;28;19924;-87
2023/05/06 11:15:25;;;;;;;;;;;17.30;99.90;;;;;;5117428;28;19923;-87
2023/05/06 11:17:54;;;;;;;;;;;17.30;99.90;;;;;;5098495;28;19927;-86
2023/05/06 11:20:21;;;;;;;;;;;17.40;99.90;;;;;;5116456;28;20394;-86
2023/05/06 11:22:47;;;;;;;;;;;17.40;99.90;;;;;;5098779;28;20224;-87
2023/05/06 11:25:12;;;;;;;;;;;17.40;99.90;;;;;;5098554;28;19924;-87
2023/05/06 11:27:38;;;;;;;;;;;17.30;99.90;;;;;;5098119;28;19924;-87
2023/05/06 11:30:04;;;;;;;;;;;17.30;99.90;;;;;;5097998;28;19924;-90
2023/05/06 11:32:31;;;;;;;;;;;17.30;99.90;;;;;;5081252;28;19928;-86
2023/05/06 11:34:57;;;;;;;;;;;17.30;99.90;;;;;;5098274;28;20320;-86
2023/05/06 11:37:23;;;;;;;;;;;17.30;99.90;;;;;;5117048;28;20018;-86
2023/05/06 11:39:49;;;;;;;;;;;17.30;99.90;;;;;;5097526;28;19967;-89
2023/05/06 11:42:22;;;;;;;;;;;17.10;99.90;;;;;;5097902;28;19974;-88
2023/05/06 11:44:48;;;;;;;;;;;17.00;99.90;;;;;;5097644;28;19924;-88
2023/05/06 11:47:13;;;;;;;;;;;16.90;99.90;;;;;;5116000;28;19924;-88
2023/05/06 11:49:40;;;;;;;;;;;16.90;99.90;;;;;;5097765;28;20399;-89
2023/05/06 11:52:10;;;;;;;;;;;16.80;99.90;;;;;;5080751;28;20018;-89
2023/05/06 11:54:38;;;;;;;;;;;16.60;99.90;;;;;;5081197;28;20018;-89
2023/05/06 11:57:04;;;;;;;;;;;16.50;99.90;;;;;;5114822;28;20287;-90
2023/05/06 11:59:30;;;;;;;;;;;16.40;99.90;;;;;;5097524;28;19928;-88
2023/05/06 12:01:57;;;;;;;;;;;16.30;99.90;;;;;;5080779;28;20384;-88
2023/05/06 12:04:23;;;;;;;;;;;16.00;99.90;;;;;;5097658;28;19924;-88
2023/05/06 12:06:48;;;;;;;;;;;15.90;99.90;;;;;;5097783;28;19924;-88
2023/05/06 12:09:14;;;;;;;;;;;15.70;99.90;;;;;;5080784;28;20276;-89
2023/05/06 12:11:40;;;;;;;;;;;15.50;99.90;;;;;;5097431;28;19934;-87
2023/05/06 12:14:07;;;;;;;;;;;15.40;99.90;;;;;;5081419;28;19931;-87
2023/05/06 12:16:34;;;;;;;;;;;15.40;99.90;;;;;;5097730;28;20014;-87
2023/05/06 12:19:00;;;;;;;;;;;15.20;99.90;;;;;;5097111;28;19971;-86
2023/05/06 12:21:26;;;;;;;;;;;15.20;99.90;;;;;;5096786;28;20391;-86
2023/05/06 12:24:11;;;;;;;;;;;15.00;99.90;;;;;;5097302;28;19930;-87
2023/05/06 12:26:43;;;;;;;;;;;14.80;99.90;;;;;;5097569;28;20014;-87
2023/05/06 12:29:10;;;;;;;;;;;14.50;99.90;;;;;;5097182;28;20268;-88
2023/05/06 12:31:35;;;;;;;;;;;14.20;99.90;;;;;;5098493;28;19924;-91
2023/05/06 12:34:02;;;;;;;;;;;14.10;99.90;;;;;;5080858;28;20266;-92
2023/05/06 12:36:27;;;;;;;;;;;14.10;99.90;;;;;;5097433;28;19931;-91
2023/05/06 12:38:57;;;;;;;;;;;14.10;99.90;;;;;;5081430;28;19924;-91
2023/05/06 12:41:23;;;;;;;;;;;14.10;99.90;;;;;;5081860;28;19931;-93
2023/05/06 12:43:49;;;;;;;;;;;14.10;99.90;;;;;;5081145;28;19924;-92
2023/05/06 12:46:15;;;;;;;;;;;13.90;99.90;;;;;;5080907;28;19996;-92
2023/05/06 12:49:01;;;;;;;;;;;13.80;99.90;;;;;;5080704;28;19924;-92
2023/05/06 12:51:29;;;;;;;;;;;13.80;99.90;;;;;;5099032;28;19977;-93
2023/05/06 12:53:55;;;;;;;;;;;13.80;99.90;;;;;;5098084;28;19930;-93
2023/05/06 12:56:21;;;;;;;;;;;13.70;99.90;;;;;;5080626;28;19924;-89
2023/05/06 12:58:59;;;;;;;;;;;13.60;99.90;;;;;;5080018;28;20455;-92
2023/05/06 13:01:25;;;;;;;;;;;13.50;99.90;;;;;;5114540;28;19930;-91
2023/05/06 13:03:52;;;;;;;;;;;13.70;99.90;;;;;;5081388;28;20034;-91
2023/05/06 13:06:18;;;;;;;;;;;13.60;99.90;;;;;;5115639;28;19983;-92
2023/05/06 13:08:43;;;;;;;;;;;13.50;99.90;;;;;;5080176;28;19924;-93
2023/05/06 13:11:09;;;;;;;;;;;13.40;99.90;;;;;;5082182;28;20023;-94
2023/05/06 13:13:35;;;;;;;;;;;13.40;99.90;;;;;;5107714;28;19931;-95
2023/05/06 13:16:00;;;;;;;;;;;13.30;99.90;;;;;;5081908;28;20351;-94
2023/05/06 13:18:26;;;;;;;;;;;13.20;99.90;;;;;;5098549;28;19931;-95
2023/05/06 13:20:51;;;;;;;;;;;13.20;99.90;;;;;;5064693;28;19924;-93
2023/05/06 13:23:18;;;;;;;;;;;13.10;99.90;;;;;;5080572;28;19931;-93
2023/05/06 13:25:43;;;;;;;;;;;13.10;99.90;;;;;;5064868;28;19924;-91
2023/05/06 13:28:09;;;;;;;;;;;13.20;99.90;;;;;;5080426;28;20413;-95
2023/05/06 13:30:35;;;;;;;;;;;13.20;99.90;;;;;;5064487;28;19924;-93
2023/05/06 13:33:00;;;;;;;;;;;13.20;99.90;;;;;;5082009;28;20415;-93
2023/05/06 13:35:26;;;;;;;;;;;13.30;99.90;;;;;;5082010;28;19963;-93
2023/05/06 13:37:51;;;;;;;;;;;13.40;99.90;;;;;;5082760;28;19924;-93
2023/05/06 13:40:17;;;;;;;;;;;13.50;99.90;;;;;;5101309;28;19989;-94
2023/05/06 13:42:42;;;;;;;;;;;13.60;99.90;;;;;;5102382;28;19923;-94
2023/05/06 13:45:08;;;;;;;;;;;13.70;99.90;;;;;;5081128;28;19930;-95
2023/05/06 13:47:34;;;;;;;;;;;13.70;99.90;;;;;;5099500;28;20032;-94
2023/05/06 13:50:02;;;;;;;;;;;13.70;99.90;;;;;;5100180;28;19927;-94
2023/05/06 13:52:28;;;;;;;;;;;13.80;99.90;;;;;;5085326;28;19930;-94
2023/05/06 13:54:54;;;;;;;;;;;14.00;99.90;;;;;;5080843;28;19924;-93
2023/05/06 13:57:19;;;;;;;;;;;14.10;99.90;;;;;;5080283;28;19992;-94
2023/05/06 13:59:45;;;;;;;;;;;14.20;99.90;;;;;;5064738;28;19975;-94
2023/05/06 14:02:10;;;;;;;;;;;14.40;99.90;;;;;;5080640;28;19979;-93
2023/05/06 14:04:36;;;;;;;;;;;14.40;99.90;;;;;;5079896;28;20022;-94
2023/05/06 14:07:02;;;;;;;;;;;14.40;99.90;;;;;;5079742;28;19924;-93
2023/05/06 14:09:27;;;;;;;;;;;14.30;99.90;;;;;;5082975;28;20283;-92
2023/05/06 14:11:53;;;;;;;;;;;14.40;99.90;;;;;;5100527;28;19924;-92
2023/05/06 14:14:18;;;;;;;;;;;14.30;99.90;;;;;;5083463;28;19930;-91